Terminal Aerodrome Forecast
Issued by NWS

Home | Current Version | Previous Version | Text Only | Print | Product List | Glossary On
Versions: 1 2 3 4 5 6 7 8 9 10 11 12 13 14 15 16 17 18 19 20 21 22 23 24 25
694
FTUS43 KABR 120534
TAFMBG
TAF
KMBG 120534Z 1206/1306 VRB04KT 6SM BR OVC015
     FM121100 02011KT P6SM OVC015
     FM121900 04008KT P6SM BKN060 BKN150
     FM122300 11010KT P6SM OVC060=

USA.gov is the U.S. government's official web portal to all federal, state and local government web resources and services.